Time;durP1;ratioP1;P1;durP2;ratioP2;P2;SDS_P1;SDS_P2;PMS_P1;PMS_P2;Temp;Humidity;BMP_temperature;BMP_pressure;BME280_temperature;BME280_humidity;BME280_pressure;Samples;Min_cycle;Max_cycle;Signal;HPM_P1;HPM_P2
2020/12/06 00:00:54;;;;;;;23.40;7.75;;;;;;;-5.13;58.02;101824.48;1787341;79;21318;-79
2020/12/06 00:04:01;;;;;;;18.45;8.05;;;;;;;-5.15;57.97;101834.34;1718760;82;21370;-79
2020/12/06 00:07:07;;;;;;;18.55;6.47;;;;;;;-5.16;57.97;101833.92;1789454;79;21315;-79
2020/12/06 00:10:19;;;;;;;27.65;9.10;;;;;;;-5.17;57.69;101837.52;1762506;80;21181;-79
2020/12/06 00:13:25;;;;;;;20.00;6.22;;;;;;;-5.20;57.58;101829.58;1768262;80;21192;-79
2020/12/06 00:16:31;;;;;;;16.93;6.25;;;;;;;-5.21;57.41;101845.17;1763160;80;21296;-79
2020/12/06 00:19:37;;;;;;;19.17;7.12;;;;;;;-5.25;57.30;101835.03;1756766;80;21324;-79
2020/12/06 00:22:42;;;;;;;25.15;7.78;;;;;;;-5.26;57.45;101825.74;1756128;81;21314;-79
2020/12/06 00:25:49;;;;;;;28.12;7.78;;;;;;;-5.28;57.47;101832.43;1764312;80;21787;-78
2020/12/06 00:28:56;;;;;;;25.48;7.58;;;;;;;-5.27;57.38;101837.30;1751479;80;21976;-78
2020/12/06 00:32:02;;;;;;;21.10;7.53;;;;;;;-5.32;57.21;101837.42;1756229;79;21838;-78
2020/12/06 00:35:08;;;;;;;22.30;7.30;;;;;;;-5.35;57.39;101835.31;1713568;83;21339;-78
2020/12/06 00:38:14;;;;;;;20.57;8.45;;;;;;;-5.37;57.50;101834.45;1716631;82;21343;-78
2020/12/06 00:41:23;;;;;;;19.12;7.03;;;;;;;-5.38;57.71;101822.04;1711681;83;21369;-78
2020/12/06 00:44:30;;;;;;;19.55;6.50;;;;;;;-5.41;57.64;101833.22;1720844;82;21383;-78
2020/12/06 00:47:37;;;;;;;13.72;6.40;;;;;;;-5.45;57.73;101820.86;1710856;82;21965;-78
2020/12/06 00:50:44;;;;;;;20.37;6.78;;;;;;;-5.46;57.76;101823.13;1722616;82;21311;-78
2020/12/06 00:53:49;;;;;;;22.52;6.75;;;;;;;-5.47;57.75;101821.34;1672833;82;21331;-78
2020/12/06 00:57:03;;;;;;;18.17;7.15;;;;;;;-5.50;57.79;101822.77;1748395;79;21245;-78
2020/12/06 01:00:08;;;;;;;16.82;6.97;;;;;;;-5.52;58.07;101818.38;1760185;80;21640;-79
2020/12/06 01:03:14;;;;;;;16.30;6.53;;;;;;;-5.55;58.25;101825.10;1753518;80;21384;-79
2020/12/06 01:06:24;;;;;;;24.98;6.45;;;;;;;-5.61;58.41;101824.80;1751679;80;21222;-79
2020/12/06 01:09:31;;;;;;;21.85;6.47;;;;;;;-5.62;58.41;101816.85;1749660;81;21208;-80
2020/12/06 01:12:37;;;;;;;16.48;6.60;;;;;;;-5.62;58.37;101820.39;1752815;80;21270;-79
2020/12/06 01:15:43;;;;;;;18.98;6.17;;;;;;;-5.66;58.48;101818.70;1763923;80;21347;-80
2020/12/06 01:18:49;;;;;;;16.62;7.03;;;;;;;-5.69;58.64;101813.47;1755099;80;21829;-79
2020/12/06 01:21:59;;;;;;;13.03;5.87;;;;;;;-5.70;58.88;101821.02;1776834;80;21868;-79
2020/12/06 01:25:05;;;;;;;17.90;7.70;;;;;;;-5.70;58.96;101809.89;1782387;79;21220;-78
2020/12/06 01:28:12;;;;;;;18.42;6.00;;;;;;;-5.71;58.94;101814.81;1771601;80;21312;-78
2020/12/06 01:31:18;;;;;;;13.03;5.62;;;;;;;-5.72;58.84;101809.53;1776936;80;21298;-78
2020/12/06 01:34:26;;;;;;;13.28;6.72;;;;;;;-5.72;58.60;101802.41;1764814;80;21322;-79
2020/12/06 01:37:31;;;;;;;16.80;6.42;;;;;;;-5.73;58.56;101805.99;1751914;80;21858;-78
2020/12/06 01:40:37;;;;;;;18.35;8.45;;;;;;;-5.72;58.41;101814.86;1751495;81;21858;-79
2020/12/06 01:43:43;;;;;;;24.87;6.75;;;;;;;-5.75;58.41;101820.25;1753341;81;21848;-79
2020/12/06 01:46:48;;;;;;;13.95;6.72;;;;;;;-5.81;58.36;101810.62;1766017;79;21319;-79
2020/12/06 01:49:55;;;;;;;17.25;6.22;;;;;;;-5.87;58.58;101799.23;1752464;80;21317;-78
2020/12/06 01:53:02;;;;;;;15.20;6.60;;;;;;;-5.91;58.74;101816.62;1736391;80;21318;-78
2020/12/06 01:56:07;;;;;;;17.52;5.83;;;;;;;-5.96;58.93;101818.55;1741210;80;21358;-78
2020/12/06 01:59:13;;;;;;;17.82;5.67;;;;;;;-6.01;59.11;101817.78;1762495;80;21375;-79
2020/12/06 02:02:20;;;;;;;16.95;6.33;;;;;;;-6.04;59.06;101815.17;1744201;80;21203;-79
2020/12/06 02:05:26;;;;;;;17.65;6.00;;;;;;;-6.05;59.01;101822.75;1734855;79;21348;-80
2020/12/06 02:08:31;;;;;;;18.82;6.83;;;;;;;-6.06;58.97;101818.34;1760204;80;21296;-79
2020/12/06 02:11:41;;;;;;;12.47;5.67;;;;;;;-6.05;59.18;101811.22;1749902;79;21326;-79
2020/12/06 02:14:46;;;;;;;16.90;5.67;;;;;;;-6.09;59.20;101813.06;1751958;79;21192;-79
2020/12/06 02:17:51;;;;;;;14.65;6.25;;;;;;;-6.09;59.15;101815.73;1761457;80;21335;-79
2020/12/06 02:20:58;;;;;;;15.68;6.55;;;;;;;-6.12;58.99;101803.80;1766689;80;21758;-79
2020/12/06 02:24:04;;;;;;;16.65;6.42;;;;;;;-6.14;59.16;101805.63;1765255;80;21307;-79
2020/12/06 02:27:10;;;;;;;16.42;6.30;;;;;;;-6.19;59.15;101802.20;1769639;80;21873;-79
2020/12/06 02:30:15;;;;;;;17.98;6.17;;;;;;;-6.25;59.22;101797.02;1767094;80;21203;-79
2020/12/06 02:33:22;;;;;;;13.45;6.12;;;;;;;-6.27;59.33;101802.35;1767589;80;21315;-79
2020/12/06 02:36:28;;;;;;;14.40;6.28;;;;;;;-6.32;59.60;101799.37;1769294;80;21299;-79
2020/12/06 02:39:35;;;;;;;19.37;6.25;;;;;;;-6.32;59.46;101818.02;1767218;80;21217;-79
2020/12/06 02:42:42;;;;;;;23.20;6.97;;;;;;;-6.34;59.65;101818.52;1767540;80;21208;-79
2020/12/06 02:45:47;;;;;;;18.95;6.70;;;;;;;-6.35;59.69;101816.73;1771115;80;21209;-78
2020/12/06 02:48:52;;;;;;;13.22;6.40;;;;;;;-6.36;59.65;101822.98;1751385;80;21258;-78
2020/12/06 02:51:59;;;;;;;15.60;7.22;;;;;;;-6.36;59.55;101827.84;1740769;80;21227;-78
2020/12/06 02:55:05;;;;;;;20.85;6.05;;;;;;;-6.36;59.51;101830.51;1747867;80;21851;-79
2020/12/06 02:58:12;;;;;;;23.75;8.18;;;;;;;-6.35;59.16;101830.05;1738357;80;21242;-79
2020/12/06 03:01:17;;;;;;;18.27;6.30;;;;;;;-6.35;58.96;101836.70;1745528;80;21256;-78
2020/12/06 03:04:23;;;;;;;14.87;5.40;;;;;;;-6.34;59.07;101838.03;1754634;80;21284;-79
2020/12/06 03:07:29;;;;;;;22.27;6.85;;;;;;;-6.34;59.05;101840.69;1769970;80;21331;-79
2020/12/06 03:10:34;;;;;;;15.40;6.72;;;;;;;-6.34;59.08;101842.48;1768864;80;21335;-78
2020/12/06 03:13:41;;;;;;;15.68;6.72;;;;;;;-6.38;59.13;101836.79;1769242;80;21306;-78
2020/12/06 03:16:46;;;;;;;20.82;6.00;;;;;;;-6.46;59.25;101848.92;1771186;80;21316;-79
2020/12/06 03:19:53;;;;;;;11.10;5.65;;;;;;;-6.48;59.43;101852.95;1778983;79;21342;-79
2020/12/06 03:23:00;;;;;;;9.95;5.17;;;;;;;-6.50;59.57;101850.75;1784045;79;21324;-78
2020/12/06 03:26:06;;;;;;;14.10;5.92;;;;;;;-6.53;59.36;101853.95;1730248;82;21890;-79
2020/12/06 03:29:12;;;;;;;12.73;5.53;;;;;;;-6.56;59.63;101856.67;1724577;82;21327;-79
2020/12/06 03:32:19;;;;;;;14.10;6.17;;;;;;;-6.56;59.73;101865.53;1721350;82;22003;-79
2020/12/06 03:35:24;;;;;;;21.87;6.58;;;;;;;-6.58;59.65;101858.04;1780297;79;21328;-79
2020/12/06 03:38:31;;;;;;;15.68;5.33;;;;;;;-6.57;59.40;101850.93;1706524;83;21313;-79
2020/12/06 03:41:38;;;;;;;15.13;6.65;;;;;;;-6.56;59.32;101860.20;1774460;80;21628;-79
2020/12/06 03:44:44;;;;;;;15.32;5.62;;;;;;;-6.54;59.24;101858.83;1781977;80;21681;-79
2020/12/06 03:47:50;;;;;;;13.38;6.40;;;;;;;-6.57;59.12;101858.45;1703870;82;21381;-78
2020/12/06 03:50:57;;;;;;;14.60;6.17;;;;;;;-6.64;59.15;101862.12;1700649;84;21210;-79
2020/12/06 03:54:03;;;;;;;23.57;6.78;;;;;;;-6.67;59.25;101860.87;1762101;80;21344;-78
2020/12/06 03:57:09;;;;;;;9.10;4.70;;;;;;;-6.67;59.30;101853.34;1753260;80;21932;-78
2020/12/06 04:00:20;;;;;;;16.23;6.17;;;;;;;-6.68;59.46;101861.76;1765027;81;21844;-78
2020/12/06 04:03:24;;;;;;;21.33;6.65;;;;;;;-6.74;59.40;101860.55;1725888;82;21837;-78
2020/12/06 04:06:29;;;;;;;14.70;7.00;;;;;;;-6.74;59.45;101868.53;1717771;81;21352;-78
2020/12/06 04:09:35;;;;;;;19.95;7.28;;;;;;;-6.75;59.70;101869.45;1737037;81;21390;-79
2020/12/06 04:12:41;;;;;;;17.30;6.97;;;;;;;-6.79;59.83;101865.09;1760306;79;22577;-78
2020/12/06 04:15:47;;;;;;;17.60;6.87;;;;;;;-6.84;60.03;101864.30;1759106;79;21351;-78
2020/12/06 04:18:51;;;;;;;16.62;7.60;;;;;;;-6.88;60.02;101858.14;1711490;81;21329;-78
2020/12/06 04:21:57;;;;;;;17.42;6.50;;;;;;;-6.91;60.16;101857.34;1690209;83;21772;-77
2020/12/06 04:25:04;;;;;;;16.07;6.47;;;;;;;-6.93;60.18;101868.45;1703229;82;21344;-77
2020/12/06 04:28:10;;;;;;;15.70;6.58;;;;;;;-6.97;60.31;101865.83;1724545;82;21403;-78
2020/12/06 04:31:16;;;;;;;17.45;6.92;;;;;;;-7.02;60.45;101871.69;1752975;80;21377;-79
2020/12/06 04:34:21;;;;;;;17.02;6.45;;;;;;;-7.06;60.61;101872.64;1764892;80;21279;-77
2020/12/06 04:37:27;;;;;;;18.67;6.92;;;;;;;-7.09;60.73;101867.85;1706717;83;21259;-77
2020/12/06 04:40:33;;;;;;;16.23;6.78;;;;;;;-7.14;60.64;101863.94;1773356;80;21314;-77
2020/12/06 04:43:40;;;;;;;13.55;5.87;;;;;;;-7.15;60.70;101867.52;1703440;82;21353;-77
2020/12/06 04:46:46;;;;;;;17.05;7.10;;;;;;;-7.13;60.74;101873.67;1779378;79;21744;-77
2020/12/06 04:49:53;;;;;;;22.58;6.20;;;;;;;-7.13;60.72;101876.78;1784190;79;21317;-78
2020/12/06 04:53:02;;;;;;;12.15;5.78;;;;;;;-7.17;60.66;101869.30;1689874;82;21343;-79
2020/12/06 04:56:08;;;;;;;15.77;6.23;;;;;;;-7.21;60.81;101876.90;1762351;80;21338;-78
2020/12/06 04:59:14;;;;;;;18.65;7.70;;;;;;;-7.24;60.68;101873.86;1759550;81;21236;-79
2020/12/06 05:02:22;;;;;;;14.87;6.60;;;;;;;-7.25;60.46;101881.38;1760773;80;21333;-79
2020/12/06 05:05:28;;;;;;;15.75;6.65;;;;;;;-7.28;60.47;101885.45;1757999;81;21916;-79
2020/12/06 05:08:34;;;;;;;19.00;6.22;;;;;;;-7.30;60.58;101890.34;1751898;81;21321;-79
2020/12/06 05:11:41;;;;;;;16.20;8.00;;;;;;;-7.32;60.57;101887.72;1764397;80;21354;-78
2020/12/06 05:14:47;;;;;;;16.32;6.80;;;;;;;-7.31;60.56;101881.50;1762559;80;21316;-78
2020/12/06 05:17:54;;;;;;;11.50;5.30;;;;;;;-7.33;60.82;101888.63;1767513;80;21291;-79
2020/12/06 05:21:00;;;;;;;17.23;5.40;;;;;;;-7.35;60.88;101889.09;1767563;81;21755;-79
2020/12/06 05:24:06;;;;;;;10.05;5.17;;;;;;;-7.32;61.05;101893.49;1766860;80;21208;-79
2020/12/06 05:27:12;;;;;;;16.25;6.87;;;;;;;-7.36;60.89;101898.42;1767671;80;21374;-78
2020/12/06 05:30:18;;;;;;;13.08;5.85;;;;;;;-7.37;61.13;101913.50;1744546;80;21263;-77
2020/12/06 05:33:24;;;;;;;18.15;6.90;;;;;;;-7.38;61.21;101904.23;1750736;80;21854;-78
2020/12/06 05:36:31;;;;;;;18.95;8.43;;;;;;;-7.38;61.30;101903.78;1743381;80;21317;-79
2020/12/06 05:39:36;;;;;;;19.17;7.45;;;;;;;-7.40;61.09;101906.02;1746696;81;21321;-78
2020/12/06 05:42:42;;;;;;;22.67;7.50;;;;;;;-7.40;61.27;101906.02;1762634;81;21202;-78
2020/12/06 05:45:48;;;;;;;19.80;6.72;;;;;;;-7.41;61.07;101903.81;1737506;80;21325;-78
2020/12/06 05:48:53;;;;;;;15.30;7.22;;;;;;;-7.39;61.00;101913.96;1765844;80;21327;-78
2020/12/06 05:52:01;;;;;;;18.55;7.53;;;;;;;-7.37;60.74;101916.62;1758063;80;21857;-79
2020/12/06 05:55:06;;;;;;;14.60;6.72;;;;;;;-7.35;60.85;101933.41;1748584;80;21219;-78
2020/12/06 05:58:13;;;;;;;21.62;7.58;;;;;;;-7.30;60.81;101930.23;1747695;81;21221;-79
2020/12/06 06:01:20;;;;;;;14.40;6.60;;;;;;;-7.27;60.88;101926.20;1752182;80;21236;-78
2020/12/06 06:04:27;;;;;;;14.68;6.87;;;;;;;-7.23;60.88;101924.80;1761686;79;22071;-79
2020/12/06 06:07:32;;;;;;;13.08;6.42;;;;;;;-7.14;60.62;101922.91;1789944;79;21770;-79
2020/12/06 06:10:41;;;;;;;13.65;5.25;;;;;;;-7.07;60.57;101924.09;1779265;79;21846;-77
2020/12/06 06:13:52;;;;;;;15.83;7.50;;;;;;;-6.99;60.19;101921.31;1782719;79;21197;-77
2020/12/06 06:16:58;;;;;;;16.87;6.62;;;;;;;-6.97;59.98;101925.69;1715260;82;21335;-77
2020/12/06 06:20:04;;;;;;;20.80;8.05;;;;;;;-6.94;60.19;101935.41;1759925;80;21158;-77
2020/12/06 06:23:11;;;;;;;21.82;7.50;;;;;;;-6.89;59.94;101932.68;1760280;80;21308;-79
2020/12/06 06:26:17;;;;;;;19.30;7.22;;;;;;;-6.86;59.78;101936.17;1747780;81;21838;-78
2020/12/06 06:29:24;;;;;;;16.45;6.97;;;;;;;-6.82;59.63;101940.55;1746500;80;21898;-78
2020/12/06 06:32:30;;;;;;;15.43;6.85;;;;;;;-6.74;58.79;101937.73;1743833;81;21235;-79
2020/12/06 06:35:43;;;;;;;19.17;7.00;;;;;;;-6.64;58.66;101939.31;1876913;76;22235;-78
2020/12/06 06:38:53;;;;;;;14.58;7.22;;;;;;;-6.62;59.01;101932.20;1816643;79;21579;-78
2020/12/06 06:42:14;;;;;;;14.98;6.53;;;;;;;-6.57;58.80;101937.44;1817582;79;21818;-78
2020/12/06 06:45:20;;;;;;;17.65;8.15;;;;;;;-6.50;58.82;101937.28;1780562;80;21306;-78
2020/12/06 06:48:28;;;;;;;15.75;6.55;;;;;;;-6.44;58.27;101950.50;1733386;82;21248;-77
2020/12/06 06:51:34;;;;;;;17.80;7.00;;;;;;;-6.38;58.56;101926.88;1705250;83;21296;-77
2020/12/06 06:54:40;;;;;;;15.50;6.60;;;;;;;-6.33;58.16;101930.78;1729228;83;21894;-78
2020/12/06 06:57:47;;;;;;;16.65;7.53;;;;;;;-6.29;57.52;101945.80;1705535;83;21304;-78
2020/12/06 07:00:53;;;;;;;20.45;7.47;;;;;;;-6.26;57.51;101939.05;1729959;83;21312;-78
2020/12/06 07:04:00;;;;;;;17.92;7.60;;;;;;;-6.23;57.77;101936.34;1742102;81;21196;-79
2020/12/06 07:07:07;;;;;;;20.20;7.60;;;;;;;-6.15;57.15;101933.54;1760112;81;21318;-79
2020/12/06 07:10:14;;;;;;;19.23;7.65;;;;;;;-6.08;57.59;101933.36;1759192;81;21362;-78
2020/12/06 07:13:19;;;;;;;17.40;7.30;;;;;;;-5.99;56.74;101936.30;1759806;81;22445;-78
2020/12/06 07:16:25;;;;;;;14.38;6.70;;;;;;;-5.91;56.66;101929.88;1717570;81;21322;-79
2020/12/06 07:19:30;;;;;;;18.48;8.23;;;;;;;-5.82;56.26;101928.80;1739345;81;21220;-79
2020/12/06 07:22:35;;;;;;;16.93;7.80;;;;;;;-5.75;55.98;101925.54;1729241;83;21303;-79
2020/12/06 07:25:41;;;;;;;26.10;8.30;;;;;;;-5.68;55.76;101927.17;1704632;83;22009;-79
2020/12/06 07:28:47;;;;;;;20.37;8.40;;;;;;;-5.56;56.00;101922.02;1729758;83;21256;-79
2020/12/06 07:31:53;;;;;;;15.88;7.47;;;;;;;-5.45;55.18;101917.33;1729675;83;21201;-78
2020/12/06 07:34:59;;;;;;;21.25;7.45;;;;;;;-5.36;54.36;101939.79;1726859;81;21760;-78
2020/12/06 07:38:06;;;;;;;18.75;6.75;;;;;;;-5.30;54.07;101924.09;1727095;83;21395;-76
2020/12/06 07:41:12;;;;;;;18.15;7.75;;;;;;;-5.25;53.07;101912.86;1726715;83;21878;-76
2020/12/06 07:44:18;;;;;;;16.17;8.13;;;;;;;-5.19;53.04;101911.36;1726724;83;21241;-76
2020/12/06 07:47:25;;;;;;;20.88;7.75;;;;;;;-5.05;53.49;101917.23;1726074;83;21213;-76
2020/12/06 07:50:30;;;;;;;17.57;7.08;;;;;;;-4.97;52.75;101913.93;1727622;83;21200;-76
2020/12/06 07:53:35;;;;;;;15.58;7.37;;;;;;;-4.86;53.00;101916.32;1727493;83;21315;-76
2020/12/06 07:56:42;;;;;;;19.52;8.25;;;;;;;-4.75;52.36;101920.94;1726291;83;21232;-76
2020/12/06 07:59:48;;;;;;;23.02;7.62;;;;;;;-4.69;52.21;101909.22;1727474;83;21873;-76
2020/12/06 08:03:06;;;;;;;18.30;7.72;;;;;;;-4.63;52.61;101926.41;1717695;81;21299;-77
2020/12/06 08:06:11;;;;;;;19.57;7.50;;;;;;;-4.57;52.27;101923.56;1756182;81;21291;-76
2020/12/06 08:09:16;;;;;;;17.95;7.00;;;;;;;-4.51;52.02;101908.73;1757627;81;21374;-76
2020/12/06 08:12:22;;;;;;;16.35;7.47;;;;;;;-4.48;52.30;101913.97;1757668;81;21303;-76
2020/12/06 08:15:37;;;;;;;19.15;7.28;;;;;;;-4.46;51.80;101926.84;1757042;81;21869;-76
2020/12/06 08:18:42;;;;;;;16.87;8.13;;;;;;;-4.42;52.02;101900.47;1733982;81;21301;-76
2020/12/06 08:21:50;;;;;;;26.33;8.68;;;;;;;-4.33;52.01;101920.69;1727354;83;21781;-78
2020/12/06 08:24:56;;;;;;;18.12;8.48;;;;;;;-4.25;51.69;101915.14;1727444;83;21198;-79
2020/12/06 08:28:03;;;;;;;16.60;7.90;;;;;;;-4.15;51.91;101912.16;1727540;83;21352;-78
2020/12/06 08:31:08;;;;;;;15.95;6.72;;;;;;;-4.07;51.17;101892.38;1727381;83;21304;-78
2020/12/06 08:34:17;;;;;;;15.98;6.90;;;;;;;-4.01;50.97;101901.53;1725983;82;21280;-78
2020/12/06 08:37:27;;;;;;;12.15;6.92;;;;;;;-3.99;50.99;101893.91;1735914;82;21201;-78
2020/12/06 08:40:34;;;;;;;20.70;8.68;;;;;;;-3.93;50.93;101896.39;1715677;83;21378;-78
2020/12/06 08:43:55;;;;;;;23.92;7.35;;;;;;;-3.83;49.36;101890.77;1744540;82;21197;-78
2020/12/06 08:47:00;;;;;;;17.57;5.83;;;;;;;-3.79;48.54;101879.06;1713300;83;21296;-78
2020/12/06 08:50:15;;;;;;;16.35;7.22;;;;;;;-3.74;48.86;101875.31;1700821;83;21217;-78
2020/12/06 08:53:21;;;;;;;18.07;6.55;;;;;;;-3.64;49.39;101879.92;1748255;82;21193;-78
2020/12/06 08:56:43;;;;;;;16.67;7.28;;;;;;;-3.52;49.39;101882.22;1760849;81;21217;-78
2020/12/06 08:59:49;;;;;;;21.60;6.45;;;;;;;-3.43;47.88;101881.06;1748585;82;21323;-78
2020/12/06 09:02:55;;;;;;;14.18;7.35;;;;;;;-3.40;48.26;101872.45;1734503;82;21355;-79
2020/12/06 09:06:00;;;;;;;20.57;7.22;;;;;;;-3.37;46.70;101889.75;1715107;83;21554;-79
2020/12/06 09:09:06;;;;;;;22.80;7.20;;;;;;;-3.31;47.06;101857.03;1744733;82;21193;-79
2020/12/06 09:12:13;;;;;;;14.90;7.35;;;;;;;-3.25;47.27;101872.88;1714608;83;21346;-79
2020/12/06 09:15:18;;;;;;;17.02;7.25;;;;;;;-3.20;48.23;101869.15;1712528;83;21311;-78
2020/12/06 09:18:23;;;;;;;24.60;7.37;;;;;;;-3.15;48.43;101862.31;1739131;82;21299;-78
2020/12/06 09:21:28;;;;;;;17.05;7.47;;;;;;;-3.10;48.17;101871.93;1715191;83;21193;-78
2020/12/06 09:24:33;;;;;;;19.07;7.37;;;;;;;-3.05;48.09;101863.74;1686791;85;21201;-79
2020/12/06 09:27:38;;;;;;;16.23;6.60;;;;;;;-2.95;48.30;101854.47;1713895;83;21346;-79
2020/12/06 09:30:45;;;;;;;16.20;7.65;;;;;;;-2.80;48.25;101859.75;1685289;85;21307;-78
2020/12/06 09:33:51;;;;;;;12.78;6.80;;;;;;;-2.75;46.52;101854.23;1715086;82;21318;-79
2020/12/06 09:36:57;;;;;;;17.07;7.90;;;;;;;-2.73;47.20;101845.67;1709151;82;21327;-79
2020/12/06 09:40:03;;;;;;;16.40;5.60;;;;;;;-2.71;46.43;101876.84;1706618;84;21297;-79
2020/12/06 09:43:08;;;;;;;15.93;7.72;;;;;;;-2.70;46.46;101846.45;1705550;84;21231;-78
2020/12/06 09:46:15;;;;;;;22.45;6.12;;;;;;;-2.65;47.75;101840.45;1706411;84;21361;-79
2020/12/06 09:49:20;;;;;;;17.55;7.12;;;;;;;-2.57;47.62;101847.77;1706534;82;21317;-79
2020/12/06 09:52:25;;;;;;;15.30;6.80;;;;;;;-2.49;46.97;101833.20;1706644;84;21275;-79
2020/12/06 09:55:30;;;;;;;17.45;6.78;;;;;;;-2.42;45.70;101830.72;1706287;84;21215;-79
2020/12/06 09:58:36;;;;;;;15.72;6.83;;;;;;;-2.34;45.45;101825.95;1705223;84;21211;-79
2020/12/06 10:01:43;;;;;;;16.45;6.85;;;;;;;-2.27;45.63;101827.46;1706549;84;21373;-79
2020/12/06 10:04:49;;;;;;;12.82;5.50;;;;;;;-2.26;44.96;101831.88;1728141;82;21241;-79
2020/12/06 10:07:56;;;;;;;17.95;6.20;;;;;;;-2.27;44.83;101835.50;1768926;81;21227;-78
2020/12/06 10:11:02;;;;;;;16.37;6.47;;;;;;;-2.23;45.37;101822.86;1769083;80;21189;-78
2020/12/06 10:14:09;;;;;;;13.60;6.55;;;;;;;-2.18;43.95;101816.86;1769041;81;21351;-78
2020/12/06 10:17:15;;;;;;;16.27;7.92;;;;;;;-2.19;44.36;101821.83;1764162;81;21767;-78
2020/12/06 10:20:22;;;;;;;21.85;7.47;;;;;;;-2.18;44.17;101823.56;1734016;82;21309;-78
2020/12/06 10:23:28;;;;;;;17.27;6.28;;;;;;;-2.14;44.29;101831.91;1771383;81;21810;-78
2020/12/06 10:26:34;;;;;;;17.00;7.62;;;;;;;-2.12;45.04;101813.94;1771293;81;22565;-78
2020/12/06 10:29:39;;;;;;;13.95;6.28;;;;;;;-2.08;45.05;101822.28;1771290;81;21901;-78
2020/12/06 10:32:43;;;;;;;19.55;7.00;;;;;;;-2.09;44.77;101816.05;1781582;79;21291;-78
2020/12/06 10:35:50;;;;;;;12.43;6.55;;;;;;;-2.08;45.36;101803.04;1801506;79;21764;-78
2020/12/06 10:38:56;;;;;;;18.50;7.45;;;;;;;-2.01;45.08;101813.08;1800237;79;21247;-78
2020/12/06 10:42:03;;;;;;;14.30;7.20;;;;;;;-1.96;44.64;101816.45;1803012;79;21330;-78
2020/12/06 10:45:09;;;;;;;12.80;6.17;;;;;;;-1.92;44.78;101815.88;1802900;79;21296;-78
2020/12/06 10:48:15;;;;;;;16.97;7.25;;;;;;;-1.91;44.16;101806.42;1798588;79;21299;-78
2020/12/06 10:51:22;;;;;;;18.77;7.53;;;;;;;-1.90;44.85;101809.50;1771262;81;21148;-78
2020/12/06 10:54:28;;;;;;;18.32;6.87;;;;;;;-1.88;44.45;101813.48;1771123;81;21283;-78
2020/12/06 10:57:36;;;;;;;22.25;7.35;;;;;;;-1.86;45.05;101805.77;1769762;81;21209;-78
2020/12/06 11:00:35;;;;;;;17.15;6.65;;;;;;;-1.83;44.98;101821.75;1771304;81;21233;-78
2020/12/06 11:03:41;;;;;;;14.25;7.42;;;;;;;-1.87;45.24;101813.88;1785396;79;21280;-78
2020/12/06 11:06:48;;;;;;;13.30;6.22;;;;;;;-1.88;45.52;101807.65;1770955;81;21898;-78
2020/12/06 11:09:53;;;;;;;16.55;6.45;;;;;;;-1.84;45.85;101807.91;1770761;81;21361;-78
2020/12/06 11:12:59;;;;;;;17.15;8.30;;;;;;;-1.84;44.78;101822.66;1770775;81;21308;-78
2020/12/06 11:16:04;;;;;;;14.65;7.37;;;;;;;-1.89;45.40;101800.52;1771046;81;21182;-78
2020/12/06 11:19:10;;;;;;;13.40;6.75;;;;;;;-1.87;45.76;101804.03;1769988;81;21845;-78
2020/12/06 11:22:16;;;;;;;14.75;7.08;;;;;;;-1.85;45.45;101798.12;1771332;81;21170;-78
2020/12/06 11:25:25;;;;;;;15.88;7.17;;;;;;;-1.85;45.95;101800.80;1771380;81;21290;-78
2020/12/06 11:28:32;;;;;;;14.95;6.92;;;;;;;-1.82;46.10;101810.55;1770591;81;21336;-78
2020/12/06 11:31:37;;;;;;;15.10;7.47;;;;;;;-1.80;46.32;101796.59;1771490;81;21186;-78
2020/12/06 11:34:43;;;;;;;15.53;6.80;;;;;;;-1.74;46.41;101793.69;1771385;81;21799;-78
2020/12/06 11:37:49;;;;;;;17.40;7.40;;;;;;;-1.69;46.02;101793.51;1770547;81;21323;-78
2020/12/06 11:40:55;;;;;;;13.48;6.33;;;;;;;-1.65;45.72;101798.66;1770049;80;21756;-78
2020/12/06 11:44:01;;;;;;;15.38;7.42;;;;;;;-1.61;45.98;101788.67;1771117;81;21236;-78
2020/12/06 11:47:06;;;;;;;22.42;6.72;;;;;;;-1.58;46.59;101800.64;1772079;79;21396;-78
2020/12/06 11:50:13;;;;;;;20.50;6.85;;;;;;;-1.59;46.88;101778.78;1802510;79;21189;-78
2020/12/06 11:53:19;;;;;;;14.87;6.53;;;;;;;-1.60;47.65;101786.39;1802608;79;21197;-78
2020/12/06 11:56:25;;;;;;;13.65;7.53;;;;;;;-1.61;47.95;101798.07;1802918;79;21304;-78
2020/12/06 11:59:31;;;;;;;15.23;6.60;;;;;;;-1.64;48.50;101780.78;1801696;79;22388;-79
2020/12/06 12:02:38;;;;;;;18.37;7.12;;;;;;;-1.64;48.93;101780.78;1794089;79;21185;-79
2020/12/06 12:05:44;;;;;;;14.18;6.58;;;;;;;-1.64;48.95;101779.44;1770028;81;21181;-78
2020/12/06 12:08:51;;;;;;;15.38;7.12;;;;;;;-1.63;49.70;101791.44;1770033;81;21189;-79
2020/12/06 12:11:59;;;;;;;13.13;5.43;;;;;;;-1.62;50.03;101786.47;1771692;81;21158;-79
2020/12/06 12:15:06;;;;;;;17.48;6.85;;;;;;;-1.58;50.22;101780.52;1770788;81;21331;-79
2020/12/06 12:18:13;;;;;;;14.75;6.50;;;;;;;-1.55;50.58;101783.08;1785466;79;21708;-78
2020/12/06 12:21:18;;;;;;;14.70;7.45;;;;;;;-1.52;50.88;101780.25;1771374;81;21760;-78
2020/12/06 12:24:24;;;;;;;17.07;7.60;;;;;;;-1.52;50.71;101803.53;1770052;81;21343;-78
2020/12/06 12:27:31;;;;;;;16.35;7.95;;;;;;;-1.58;50.75;101792.59;1770063;81;21370;-78
2020/12/06 12:30:37;;;;;;;17.27;7.05;;;;;;;-1.60;51.01;101795.78;1770691;81;21303;-78
2020/12/06 12:33:43;;;;;;;24.12;8.68;;;;;;;-1.60;51.26;101781.03;1785415;79;21288;-78
2020/12/06 12:36:50;;;;;;;13.50;6.75;;;;;;;-1.59;51.43;101777.44;1761915;81;21173;-78
2020/12/06 12:39:55;;;;;;;16.05;7.30;;;;;;;-1.62;51.53;101790.97;1770312;81;21483;-78
2020/12/06 12:43:03;;;;;;;19.35;7.78;;;;;;;-1.65;51.27;101784.37;1784868;80;21295;-78
2020/12/06 12:46:08;;;;;;;17.67;8.33;;;;;;;-1.72;51.16;101777.05;1783760;80;21251;-78
2020/12/06 12:49:15;;;;;;;25.92;8.60;;;;;;;-1.74;51.06;101771.33;1784391;80;21292;-78
2020/12/06 12:52:20;;;;;;;18.15;7.53;;;;;;;-1.77;50.91;101795.14;1784744;80;21335;-79
2020/12/06 12:55:19;;;;;;;19.07;7.78;;;;;;;-1.84;50.15;101793.16;1784697;80;21283;-79
2020/12/06 12:58:25;;;;;;;17.90;8.00;;;;;;;-1.91;50.02;101796.16;1783449;80;21161;-79
2020/12/06 13:01:32;;;;;;;16.37;8.18;;;;;;;-1.99;49.68;101819.71;1783821;80;21213;-79
2020/12/06 13:04:37;;;;;;;17.07;7.25;;;;;;;-2.06;49.88;101801.19;1785090;80;21299;-79
2020/12/06 13:07:45;;;;;;;18.27;8.23;;;;;;;-2.13;50.51;101803.69;1784563;78;21286;-79
2020/12/06 13:10:51;;;;;;;22.30;7.55;;;;;;;-2.18;51.52;101786.91;1783533;80;21337;-79
2020/12/06 13:14:03;;;;;;;17.07;7.87;;;;;;;-2.22;52.40;101792.44;1784938;80;21179;-79
2020/12/06 13:17:07;;;;;;;22.30;9.18;;;;;;;-2.27;53.02;101811.84;1783459;80;21313;-79
2020/12/06 13:20:14;;;;;;;24.05;9.08;;;;;;;-2.34;53.73;101806.73;1806308;78;21314;-79
2020/12/06 13:23:19;;;;;;;19.73;10.28;;;;;;;-2.40;54.32;101800.27;1830651;78;21176;-79
2020/12/06 13:26:25;;;;;;;25.68;10.00;;;;;;;-2.50;54.87;101797.96;1830653;78;21310;-79
2020/12/06 13:29:30;;;;;;;21.27;9.35;;;;;;;-2.57;55.33;101806.70;1830583;78;21172;-79
2020/12/06 13:32:37;;;;;;;25.80;9.90;;;;;;;-2.60;55.55;101814.84;1816316;78;21320;-79
2020/12/06 13:35:44;;;;;;;23.80;9.00;;;;;;;-2.64;55.75;101802.02;1783328;80;21348;-79
2020/12/06 13:38:51;;;;;;;21.17;9.33;;;;;;;-2.67;56.22;101806.17;1783367;80;21301;-79
2020/12/06 13:41:56;;;;;;;24.82;9.73;;;;;;;-2.72;56.48;101813.97;1779436;80;21222;-78
2020/12/06 13:45:02;;;;;;;26.95;11.03;;;;;;;-2.77;56.77;101811.91;1771139;81;21301;-79
2020/12/06 13:48:11;;;;;;;18.32;9.25;;;;;;;-2.79;57.07;101809.73;1771453;81;21187;-79
2020/12/06 13:51:21;;;;;;;25.35;10.98;;;;;;;-2.84;57.28;101816.13;1769966;81;21218;-79
2020/12/06 13:54:28;;;;;;;20.88;10.35;;;;;;;-2.88;57.64;101814.95;1771548;81;21376;-79
2020/12/06 13:57:33;;;;;;;29.63;11.88;;;;;;;-2.95;57.85;101825.02;1771096;81;21297;-80
2020/12/06 14:00:40;;;;;;;20.72;11.28;;;;;;;-3.04;58.29;101815.95;1770577;81;21206;-79
2020/12/06 14:03:46;;;;;;;22.00;10.93;;;;;;;-3.17;58.90;101816.83;1771562;81;21890;-78
2020/12/06 14:06:52;;;;;;;24.77;11.48;;;;;;;-3.27;59.37;101826.11;1769734;81;21299;-78
2020/12/06 14:10:00;;;;;;;28.10;12.15;;;;;;;-3.33;59.77;101828.12;1769732;81;21199;-78
2020/12/06 14:13:06;;;;;;;23.38;9.68;;;;;;;-3.45;59.17;101834.73;1771256;81;21780;-79
2020/12/06 14:16:12;;;;;;;28.35;11.90;;;;;;;-3.61;58.31;101851.75;1771243;80;21287;-78